Time;durP1;ratioP1;P1;durP2;ratioP2;P2;SDS_P1;SDS_P2;PMS_P1;PMS_P2;Temp;Humidity;BMP_temperature;BMP_pressure;BME280_temperature;BME280_humidity;BME280_pressure;Samples;Min_cycle;Max_cycle;Signal;HPM_P1;HPM_P2
2022/09/13 00:00:18;;;;;;;2.95;2.65;;;;;;;14.81;100.00;94264.53;5013038;28;20214;-65
2022/09/13 00:02:44;;;;;;;4.97;3.38;;;;;;;14.78;100.00;94270.00;5011615;28;20194;-64
2022/09/13 00:05:09;;;;;;;9.40;3.25;;;;;;;14.75;100.00;94262.63;5012886;28;20234;-66
2022/09/13 00:07:34;;;;;;;4.13;3.00;;;;;;;14.76;100.00;94266.00;5011625;28;20193;-66
2022/09/13 00:10:00;;;;;;;5.85;3.50;;;;;;;14.71;100.00;94252.88;5012716;28;20692;-63
2022/09/13 00:12:25;;;;;;;4.40;3.10;;;;;;;14.80;100.00;94265.50;5012901;28;20214;-62
2022/09/13 00:14:51;;;;;;;7.35;3.40;;;;;;;14.80;100.00;94262.97;5012670;28;20211;-62
2022/09/13 00:17:16;;;;;;;3.40;2.88;;;;;;;14.80;100.00;94264.72;5011648;28;20265;-63
2022/09/13 00:19:41;;;;;;;4.95;3.25;;;;;;;14.77;100.00;94258.16;5011301;28;20223;-63
2022/09/13 00:22:07;;;;;;;7.90;3.43;;;;;;;14.76;100.00;94253.22;5012550;28;20683;-63
2022/09/13 00:24:32;;;;;;;3.50;2.83;;;;;;;14.86;100.00;94253.81;5011325;28;20213;-65
2022/09/13 00:26:59;;;;;;;3.30;3.00;;;;;;;14.91;100.00;94261.78;5012989;28;20202;-62
2022/09/13 00:29:31;;;;;;;5.05;3.30;;;;;;;14.94;100.00;94259.72;5012451;28;20210;-63
2022/09/13 00:31:57;;;;;;;3.97;3.27;;;;;;;14.88;100.00;94255.25;5012655;28;20266;-66
2022/09/13 00:34:22;;;;;;;4.82;4.03;;;;;;;14.92;100.00;94251.41;5012516;28;20218;-66
2022/09/13 00:36:48;;;;;;;3.42;3.13;;;;;;;14.92;100.00;94251.41;5012650;28;20679;-67
2022/09/13 00:39:13;;;;;;;3.38;3.08;;;;;;;14.91;100.00;94248.97;5012391;28;20214;-63
2022/09/13 00:41:39;;;;;;;4.32;3.45;;;;;;;14.92;100.00;94243.72;5012133;28;20729;-64
2022/09/13 00:44:05;;;;;;;4.43;3.33;;;;;;;14.96;100.00;94251.84;5010971;28;20245;-63
2022/09/13 00:46:43;;;;;;;4.00;3.25;;;;;;;14.96;100.00;94252.66;5012687;28;20640;-62
2022/09/13 00:49:17;;;;;;;4.35;3.25;;;;;;;15.01;100.00;94255.50;5012184;28;20210;-64
2022/09/13 00:51:51;;;;;;;7.00;3.35;;;;;;;15.00;100.00;94250.56;5012752;28;20233;-63
2022/09/13 00:54:20;;;;;;;5.03;2.97;;;;;;;15.10;100.00;94266.53;5012118;28;20218;-65
2022/09/13 00:56:51;;;;;;;2.75;2.55;;;;;;;15.13;100.00;94269.53;5012148;28;20602;-64
2022/09/13 00:59:30;;;;;;;5.97;4.05;;;;;;;15.14;100.00;94263.47;5010751;28;20269;-64
2022/09/13 01:01:56;;;;;;;4.95;3.38;;;;;;;15.14;100.00;94255.78;5011094;28;20234;-66
2022/09/13 01:04:25;;;;;;;5.68;3.53;;;;;;;15.15;100.00;94254.00;5011959;28;20211;-62
2022/09/13 01:06:54;;;;;;;5.05;3.45;;;;;;;15.13;100.00;94256.72;5011912;28;20213;-65
2022/09/13 01:09:19;;;;;;;3.50;3.08;;;;;;;15.15;100.00;94257.38;5012001;28;20207;-62
2022/09/13 01:11:59;;;;;;;3.75;3.22;;;;;;;15.17;100.00;94264.88;5012221;28;20661;-67
2022/09/13 01:14:26;;;;;;;3.50;3.15;;;;;;;15.11;100.00;94258.66;5011846;28;20242;-65
2022/09/13 01:16:53;;;;;;;3.67;2.83;;;;;;;15.12;100.00;94249.22;5010716;28;20726;-63
2022/09/13 01:19:19;;;;;;;7.00;2.90;;;;;;;15.07;100.00;94252.28;5011784;28;20741;-64
2022/09/13 01:22:09;;;;;;;5.55;3.78;;;;;;;15.12;100.00;94251.78;5011174;28;20195;-65
2022/09/13 01:25:01;;;;;;;5.40;3.10;;;;;;;15.18;100.00;94255.44;5011842;28;20234;-65
2022/09/13 01:27:33;;;;;;;4.80;2.88;;;;;;;15.19;100.00;94257.81;5011694;28;20198;-62
2022/09/13 01:30:17;;;;;;;4.80;3.20;;;;;;;15.20;100.00;94258.63;5011690;28;20276;-64
2022/09/13 01:33:15;;;;;;;4.50;3.20;;;;;;;15.20;100.00;94253.50;5011521;28;20217;-65
2022/09/13 01:36:12;;;;;;;4.40;3.50;;;;;;;15.12;100.00;94247.47;5010545;28;20191;-65
2022/09/13 01:38:56;;;;;;;4.28;3.45;;;;;;;15.12;100.00;94249.22;5011479;28;20211;-62
2022/09/13 01:41:46;;;;;;;3.00;2.70;;;;;;;15.11;100.00;94250.97;5011874;28;20195;-61
2022/09/13 01:44:32;;;;;;;3.63;3.07;;;;;;;15.13;100.00;94238.00;5011554;28;20219;-67
2022/09/13 01:47:07;;;;;;;3.42;3.13;;;;;;;15.17;100.00;94238.50;5011703;28;20277;-62
2022/09/13 01:49:35;;;;;;;3.88;3.42;;;;;;;15.19;100.00;94236.56;5011362;28;20214;-61
2022/09/13 01:52:16;;;;;;;4.67;3.33;;;;;;;15.13;100.00;94238.00;5011323;28;20194;-67
2022/09/13 01:54:50;;;;;;;5.18;3.28;;;;;;;15.21;100.00;94247.44;5010176;28;20751;-64
2022/09/13 01:57:20;;;;;;;8.32;4.18;;;;;;;15.21;100.00;94244.88;5011418;28;20333;-64
2022/09/13 01:59:52;;;;;;;3.15;2.85;;;;;;;15.17;100.00;94246.16;5011222;28;20207;-62
2022/09/13 02:02:55;;;;;;;3.25;3.00;;;;;;;15.20;100.00;94248.38;5011238;28;20179;-65
2022/09/13 02:05:36;;;;;;;6.85;3.53;;;;;;;15.09;100.00;94227.31;5011368;28;20247;-65
2022/09/13 02:08:07;;;;;;;5.28;3.25;;;;;;;15.09;100.00;94236.75;5011361;28;20237;-64
2022/09/13 02:10:38;;;;;;;4.28;3.25;;;;;;;15.09;100.00;94237.56;5011078;28;20272;-61
2022/09/13 02:13:11;;;;;;;4.33;3.13;;;;;;;15.05;100.00;94231.16;5010985;28;20305;-65
2022/09/13 02:15:42;;;;;;;6.25;3.80;;;;;;;15.02;100.00;94228.16;5011194;28;20218;-63
2022/09/13 02:18:14;;;;;;;4.15;3.50;;;;;;;14.97;100.00;94223.53;5011190;28;20195;-66
2022/09/13 02:20:43;;;;;;;3.38;3.08;;;;;;;14.91;100.00;94210.59;5009801;28;20666;-62
2022/09/13 02:23:15;;;;;;;5.18;3.47;;;;;;;14.86;100.00;94211.13;5010874;28;20278;-62
2022/09/13 02:25:44;;;;;;;3.57;3.20;;;;;;;14.85;100.00;94217.19;5011283;28;20190;-63
2022/09/13 02:28:15;;;;;;;7.35;3.55;;;;;;;14.84;100.00;94209.69;5011032;28;20285;-61
2022/09/13 02:30:48;;;;;;;4.30;3.30;;;;;;;14.77;100.00;94209.53;5011002;28;20249;-62
2022/09/13 02:33:45;;;;;;;3.80;3.40;;;;;;;14.83;100.00;94223.41;5011512;28;20211;-63
2022/09/13 02:36:23;;;;;;;3.85;3.45;;;;;;;14.77;100.00;94224.09;5009721;28;20264;-66
2022/09/13 02:38:58;;;;;;;4.23;3.27;;;;;;;14.73;100.00;94221.06;5014388;28;20231;-65
2022/09/13 02:41:27;;;;;;;4.43;3.27;;;;;;;14.68;100.00;94213.09;5014334;28;20244;-66
2022/09/13 02:44:05;;;;;;;5.87;3.57;;;;;;;14.63;100.00;94210.22;5012956;28;20214;-62
2022/09/13 02:46:37;;;;;;;5.90;3.50;;;;;;;14.58;100.00;94215.06;5014348;28;20203;-62
2022/09/13 02:49:32;;;;;;;5.68;3.28;;;;;;;14.58;100.00;94217.63;5014225;28;20229;-65
2022/09/13 02:52:03;;;;;;;7.15;3.55;;;;;;;14.54;100.00;94216.34;5014246;28;20197;-64
2022/09/13 02:54:36;;;;;;;4.38;3.10;;;;;;;14.55;100.00;94212.81;5012543;28;20214;-62
2022/09/13 02:57:12;;;;;;;3.93;3.53;;;;;;;14.45;100.00;94214.75;5014030;28;20204;-62
2022/09/13 02:59:37;;;;;;;4.23;3.37;;;;;;;14.44;100.00;94220.84;5013995;28;20214;-61
2022/09/13 03:02:03;;;;;;;4.57;3.00;;;;;;;14.44;100.00;94214.94;5014442;28;20191;-66
2022/09/13 03:04:28;;;;;;;3.07;2.77;;;;;;;14.45;100.00;94219.06;5013953;28;20574;-62
2022/09/13 03:06:54;;;;;;;4.78;3.28;;;;;;;14.43;100.00;94221.00;5014063;28;20244;-63
2022/09/13 03:09:20;;;;;;;3.15;2.90;;;;;;;14.47;100.00;94230.75;5023262;22;20283;-64
2022/09/13 03:12:21;;;;;;;4.70;3.30;;;;;;;14.43;100.00;94229.47;5033336;28;20679;-63
2022/09/13 03:15:10;;;;;;;4.00;3.40;;;;;;;14.42;100.00;94225.31;5033350;28;20245;-62
2022/09/13 03:18:00;;;;;;;3.42;3.13;;;;;;;14.40;100.00;94224.69;5033212;28;20178;-65
2022/09/13 03:23:22;;;;;;;3.85;3.50;;;;;;;14.40;100.00;94229.81;5041646;22;20226;-65
2022/09/13 03:26:05;;;;;;;3.80;3.45;;;;;;;14.34;100.00;94224.53;5033050;28;20209;-66
2022/09/13 03:28:36;;;;;;;9.05;3.45;;;;;;;14.38;100.00;94225.81;5033351;28;20197;-63
2022/09/13 03:31:09;;;;;;;3.45;2.90;;;;;;;14.38;100.00;94229.19;5031403;28;20655;-62
2022/09/13 03:33:52;;;;;;;4.27;3.07;;;;;;;14.36;100.00;94223.44;5032768;28;20704;-61
2022/09/13 03:36:24;;;;;;;3.58;3.13;;;;;;;14.38;100.00;94238.59;5032947;28;20194;-63
2022/09/13 03:39:15;;;;;;;3.50;2.77;;;;;;;14.41;100.00;94236.50;5033010;28;20710;-63
2022/09/13 03:41:49;;;;;;;4.60;3.20;;;;;;;14.39;100.00;94225.63;5033140;28;20197;-63
2022/09/13 03:44:18;;;;;;;5.88;3.22;;;;;;;14.37;100.00;94229.31;5032235;28;20603;-62
2022/09/13 03:46:48;;;;;;;3.65;3.00;;;;;;;14.34;100.00;94232.22;5032668;28;20282;-61
2022/09/13 03:49:17;;;;;;;6.63;3.33;;;;;;;14.37;100.00;94245.47;5014941;28;20722;-65
2022/09/13 03:51:46;;;;;;;3.20;2.90;;;;;;;14.32;100.00;94250.28;5014833;28;20343;-61
2022/09/13 03:54:28;;;;;;;4.50;3.47;;;;;;;14.30;100.00;94245.31;5014673;28;20683;-63
2022/09/13 03:57:13;;;;;;;3.05;2.58;;;;;;;14.23;100.00;94238.41;5033017;28;20197;-64
2022/09/13 03:59:44;;;;;;;2.95;2.72;;;;;;;14.24;100.00;94248.47;5032508;28;20213;-63
2022/09/13 04:02:10;;;;;;;3.15;2.85;;;;;;;14.18;100.00;94233.78;5032805;28;20216;-62
2022/09/13 04:04:37;;;;;;;6.82;3.50;;;;;;;14.17;100.00;94239.88;5032540;28;20202;-64
2022/09/13 04:07:03;;;;;;;6.20;3.13;;;;;;;14.17;100.00;94242.44;5032801;28;20190;-65
2022/09/13 04:09:29;;;;;;;7.43;3.63;;;;;;;14.17;100.00;94244.19;5032545;28;20209;-62
2022/09/13 04:11:56;;;;;;;3.40;3.03;;;;;;;14.12;100.00;94247.22;5032723;28;20200;-62
2022/09/13 04:14:25;;;;;;;3.13;2.85;;;;;;;14.15;100.00;94246.09;5014653;28;20727;-63
2022/09/13 04:16:52;;;;;;;4.50;3.53;;;;;;;14.20;100.00;94249.00;5032494;28;20190;-64
2022/09/13 04:19:17;;;;;;;5.20;2.85;;;;;;;14.22;100.00;94254.75;5032100;28;20202;-62
2022/09/13 04:21:43;;;;;;;4.50;3.00;;;;;;;14.16;100.00;94237.47;5032469;28;20213;-63
2022/09/13 04:24:08;;;;;;;6.70;3.03;;;;;;;14.19;100.00;94255.84;5032265;28;20213;-63
2022/09/13 04:26:34;;;;;;;4.13;3.22;;;;;;;14.16;100.00;94266.38;5032296;28;20645;-62
2022/09/13 04:28:59;;;;;;;3.67;3.13;;;;;;;14.17;100.00;94257.78;5032231;28;20687;-64
2022/09/13 04:31:25;;;;;;;5.55;2.72;;;;;;;14.20;100.00;94265.09;5032247;28;20186;-64
2022/09/13 04:33:50;;;;;;;3.47;3.10;;;;;;;14.13;100.00;94255.69;5032098;28;20249;-66
2022/09/13 04:36:16;;;;;;;6.50;3.03;;;;;;;14.19;100.00;94275.50;5032174;28;20186;-64
2022/09/13 04:38:41;;;;;;;4.03;2.90;;;;;;;14.17;100.00;94269.75;5032011;28;20292;-63
2022/09/13 04:41:07;;;;;;;4.40;3.33;;;;;;;14.16;100.00;94263.81;5032084;28;20667;-66
2022/09/13 04:43:32;;;;;;;6.97;3.38;;;;;;;14.14;100.00;94270.88;5032074;28;20285;-62
2022/09/13 04:46:00;;;;;;;4.13;3.40;;;;;;;14.14;100.00;94281.09;5032151;28;20182;-65
2022/09/13 04:48:26;;;;;;;3.93;3.20;;;;;;;14.17;100.00;94285.88;5031931;28;20236;-62
2022/09/13 04:50:52;;;;;;;3.70;3.17;;;;;;;14.19;100.00;94276.31;5031711;28;20182;-64
2022/09/13 04:53:17;;;;;;;4.22;3.25;;;;;;;14.19;100.00;94288.28;5031776;28;20264;-61
2022/09/13 04:55:43;;;;;;;7.27;3.37;;;;;;;14.23;100.00;94289.56;5030891;28;20566;-62
2022/09/13 04:58:08;;;;;;;4.55;3.53;;;;;;;14.33;100.00;94290.22;5032024;28;20252;-64
2022/09/13 05:00:34;;;;;;;6.05;3.17;;;;;;;14.32;100.00;94295.50;5013935;28;20677;-65
2022/09/13 05:03:00;;;;;;;6.63;4.00;;;;;;;14.55;100.00;94306.66;5032133;28;20186;-63
2022/09/13 05:05:28;;;;;;;4.05;3.22;;;;;;;14.44;100.00;94307.81;5031569;28;20198;-64
2022/09/13 05:07:53;;;;;;;5.30;3.67;;;;;;;14.47;100.00;94322.81;5031902;28;20193;-61
2022/09/13 05:10:19;;;;;;;6.07;3.45;;;;;;;14.47;100.00;94327.13;5031465;28;20205;-63
2022/09/13 05:12:44;;;;;;;4.50;3.33;;;;;;;14.44;100.00;94317.22;5031356;28;20267;-61
2022/09/13 05:15:11;;;;;;;3.38;2.88;;;;;;;14.48;100.00;94328.75;5031598;28;20234;-66
2022/09/13 05:17:37;;;;;;;9.13;3.60;;;;;;;14.53;100.00;94324.72;5031398;28;20204;-66
2022/09/13 05:20:04;;;;;;;3.93;3.30;;;;;;;14.49;100.00;94323.44;5013466;28;20210;-64
2022/09/13 05:22:30;;;;;;;8.45;3.50;;;;;;;14.56;100.00;94323.63;5031585;28;20671;-63
2022/09/13 05:24:56;;;;;;;5.07;3.78;;;;;;;14.68;100.00;94322.31;5031257;28;20229;-65
2022/09/13 05:27:22;;;;;;;4.83;3.33;;;;;;;14.74;100.00;94329.34;5031621;28;20194;-65
2022/09/13 05:29:47;;;;;;;7.18;3.35;;;;;;;14.74;100.00;94344.69;5031190;28;20240;-63
2022/09/13 05:32:13;;;;;;;3.40;3.10;;;;;;;14.79;100.00;94353.47;5013599;28;20676;-65
2022/09/13 05:34:38;;;;;;;4.20;3.28;;;;;;;14.84;99.81;94381.16;5031154;28;20675;-65
2022/09/13 05:37:04;;;;;;;5.50;3.53;;;;;;;14.86;99.74;94369.78;5031405;28;20186;-64
2022/09/13 05:39:29;;;;;;;4.32;3.25;;;;;;;14.90;98.96;94373.63;5031390;28;20221;-62
2022/09/13 05:41:55;;;;;;;4.47;3.80;;;;;;;15.06;100.00;94355.66;5031118;28;20190;-65
2022/09/13 05:44:21;;;;;;;12.85;4.28;;;;;;;15.24;98.72;94377.69;5031059;28;20212;-66
2022/09/13 05:46:48;;;;;;;4.55;3.22;;;;;;;15.23;97.26;94391.47;5030919;28;20186;-64
2022/09/13 05:49:13;;;;;;;4.53;2.88;;;;;;;15.19;96.69;94395.31;5031048;28;20730;-65
2022/09/13 05:51:40;;;;;;;3.03;2.67;;;;;;;15.18;96.41;94396.28;5030922;28;20194;-64
2022/09/13 05:54:05;;;;;;;7.10;3.40;;;;;;;15.29;96.10;94388.25;5013272;28;20220;-64
2022/09/13 05:56:31;;;;;;;5.22;2.85;;;;;;;15.30;95.25;94407.75;5030968;28;20186;-63
2022/09/13 05:58:57;;;;;;;5.50;2.90;;;;;;;15.32;95.24;94398.16;5030977;28;20758;-63
2022/09/13 06:01:26;;;;;;;6.65;2.78;;;;;;;15.37;95.39;94388.22;5030795;28;20571;-65
2022/09/13 06:03:54;;;;;;;3.15;2.28;;;;;;;15.38;94.28;94406.00;5029650;28;20272;-61
2022/09/13 06:06:21;;;;;;;4.20;2.70;;;;;;;15.34;94.16;94403.91;5029298;28;20244;-63
2022/09/13 06:08:47;;;;;;;5.75;2.50;;;;;;;15.41;94.84;94382.59;5033908;28;20206;-63
2022/09/13 06:11:14;;;;;;;3.72;2.45;;;;;;;15.43;94.02;94408.09;5016756;28;20544;-64
2022/09/13 06:13:43;;;;;;;6.38;2.88;;;;;;;15.47;93.67;94407.59;5035886;28;20217;-62
2022/09/13 06:16:11;;;;;;;4.65;2.88;;;;;;;15.59;94.18;94403.72;5016520;28;20194;-62
2022/09/13 06:18:37;;;;;;;3.38;2.70;;;;;;;15.53;92.84;94426.63;5034296;28;20244;-61
2022/09/13 06:21:08;;;;;;;4.22;3.22;;;;;;;15.51;94.21;94405.50;5034109;28;20239;-61
2022/09/13 06:23:34;;;;;;;6.28;2.78;;;;;;;16.14;97.15;94436.16;5034331;28;20217;-63
2022/09/13 06:26:10;;;;;;;4.68;2.63;;;;;;;16.16;100.00;94324.69;5032468;28;20201;-64
2022/09/13 06:28:36;;;;;;;3.42;2.75;;;;;;;17.22;100.00;94279.09;5032920;28;20249;-61
2022/09/13 06:31:07;;;;;;;3.30;2.70;;;;;;;17.33;100.00;94345.47;5034183;28;20537;-64
2022/09/13 06:33:34;;;;;;;4.43;2.53;;;;;;;17.89;100.00;94323.41;5033963;28;20758;-63
2022/09/13 06:36:01;;;;;;;3.85;2.42;;;;;;;17.36;85.84;94525.00;5016490;28;20178;-64
2022/09/13 06:38:27;;;;;;;4.20;2.42;;;;;;;16.74;87.57;94470.44;5033901;28;20232;-64
2022/09/13 06:41:03;;;;;;;3.88;2.78;;;;;;;16.39;88.44;94452.97;5034874;28;20178;-65
2022/09/13 06:43:29;;;;;;;2.97;2.63;;;;;;;16.34;89.18;94450.91;5015920;28;20209;-62
2022/09/13 06:45:59;;;;;;;3.17;2.88;;;;;;;16.31;90.35;94432.50;5033896;28;20182;-63
2022/09/13 06:48:24;;;;;;;8.32;3.58;;;;;;;16.07;90.81;94428.31;5033799;28;20193;-64
2022/09/13 06:50:49;;;;;;;5.35;2.85;;;;;;;15.94;91.25;94417.78;5033585;28;20190;-64
2022/09/13 06:53:15;;;;;;;4.00;2.88;;;;;;;16.13;92.08;94419.16;5015622;28;20249;-63
2022/09/13 06:55:40;;;;;;;5.47;3.75;;;;;;;16.61;93.40;94476.13;5015763;28;20205;-63
2022/09/13 06:58:06;;;;;;;5.88;3.00;;;;;;;16.40;90.89;94465.63;5033659;28;20696;-63
2022/09/13 07:00:31;;;;;;;5.03;3.63;;;;;;;16.46;91.21;94459.03;5033589;28;20707;-63
2022/09/13 07:02:57;;;;;;;8.98;3.85;;;;;;;16.52;90.81;94461.72;5015860;28;20201;-63
2022/09/13 07:05:22;;;;;;;3.92;2.80;;;;;;;16.47;87.72;94506.81;5015315;28;20214;-64
2022/09/13 07:07:48;;;;;;;5.03;2.90;;;;;;;16.55;87.55;94512.75;5033498;28;20182;-61
2022/09/13 07:10:13;;;;;;;4.40;2.47;;;;;;;16.38;86.32;94513.75;5033567;28;20213;-65
2022/09/13 07:12:40;;;;;;;3.55;2.28;;;;;;;16.26;88.39;94479.19;5033352;28;20296;-63
2022/09/13 07:15:07;;;;;;;4.28;2.70;;;;;;;16.24;87.92;94495.72;5033065;28;20210;-64
2022/09/13 07:18:15;;;;;;;3.80;2.45;;;;;;;16.20;88.47;94473.94;5015470;28;20192;-64
2022/09/13 07:20:40;;;;;;;6.47;2.72;;;;;;;16.34;86.33;94504.00;5032443;28;20652;-64
2022/09/13 07:23:05;;;;;;;5.20;3.33;;;;;;;16.48;86.98;94493.03;5033009;28;20216;-65
2022/09/13 07:25:31;;;;;;;6.05;3.58;;;;;;;16.63;87.29;94475.94;5032762;28;20221;-65
2022/09/13 07:27:56;;;;;;;4.20;2.90;;;;;;;16.72;86.60;94503.94;5015166;28;20189;-63
2022/09/13 07:30:22;;;;;;;6.10;3.38;;;;;;;16.84;84.63;94526.69;5033130;28;20214;-62
2022/09/13 07:32:47;;;;;;;5.72;3.50;;;;;;;17.02;85.55;94512.59;5033019;28;20259;-64
2022/09/13 07:35:13;;;;;;;3.65;3.10;;;;;;;17.13;83.31;94557.63;5032983;28;20237;-63
2022/09/13 07:37:41;;;;;;;2.90;2.70;;;;;;;16.92;81.02;94583.13;5033055;28;20221;-63
2022/09/13 07:40:07;;;;;;;4.78;2.95;;;;;;;16.98;81.22;94567.84;5032773;28;20224;-65
2022/09/13 07:42:32;;;;;;;2.95;2.63;;;;;;;17.08;81.39;94555.56;5015358;28;20240;-63
2022/09/13 07:44:58;;;;;;;7.32;2.90;;;;;;;17.25;81.25;94556.25;5032790;28;20218;-66
2022/09/13 07:47:23;;;;;;;4.18;3.00;;;;;;;17.51;83.22;94531.78;5015422;28;20190;-63
2022/09/13 07:49:49;;;;;;;3.47;2.70;;;;;;;17.73;81.14;94568.72;5033264;28;20293;-64
2022/09/13 07:52:14;;;;;;;4.00;2.90;;;;;;;17.88;79.41;94587.53;5033067;28;20293;-63
2022/09/13 07:54:40;;;;;;;3.55;2.53;;;;;;;17.87;74.40;94685.44;5032852;28;20679;-62
2022/09/13 07:57:05;;;;;;;5.55;2.88;;;;;;;17.79;74.93;94655.44;5032893;28;20173;-61
2022/09/13 07:59:31;;;;;;;3.85;2.22;;;;;;;17.45;74.38;94647.34;5032630;28;20221;-63
2022/09/13 08:01:57;;;;;;;5.28;2.25;;;;;;;17.40;71.07;94714.66;5032667;28;20225;-63
2022/09/13 08:04:24;;;;;;;2.75;2.33;;;;;;;17.47;73.16;94650.53;5032970;28;20210;-63
2022/09/13 08:06:49;;;;;;;2.80;2.45;;;;;;;17.47;71.11;94696.78;5032455;28;20186;-62
2022/09/13 08:09:17;;;;;;;3.72;2.30;;;;;;;17.42;71.81;94679.31;5032422;28;20221;-63
2022/09/13 08:11:51;;;;;;;2.95;2.30;;;;;;;17.45;69.97;94703.88;5032200;28;20660;-62
2022/09/13 08:14:18;;;;;;;3.40;2.42;;;;;;;17.55;71.83;94647.94;5032438;28;20228;-63
2022/09/13 08:16:44;;;;;;;3.72;2.40;;;;;;;17.79;72.32;94636.66;5032442;28;20182;-63
2022/09/13 08:19:13;;;;;;;2.92;1.95;;;;;;;17.97;71.38;94655.94;4998324;28;20222;-61
2022/09/13 08:21:40;;;;;;;2.20;1.85;;;;;;;18.30;74.24;94595.44;5032423;28;20216;-64
2022/09/13 08:24:07;;;;;;;4.68;2.22;;;;;;;18.36;70.79;94673.75;5032054;28;20303;-63
2022/09/13 08:26:34;;;;;;;1.85;1.70;;;;;;;18.57;69.69;94697.03;5032168;28;20194;-64
2022/09/13 08:29:03;;;;;;;2.25;2.03;;;;;;;18.22;67.96;94710.56;5032383;28;20211;-68
2022/09/13 08:31:29;;;;;;;5.68;2.78;;;;;;;18.12;69.13;94677.34;5032215;28;20186;-64
2022/09/13 08:33:55;;;;;;;6.22;2.58;;;;;;;18.29;70.29;94635.03;5032025;28;20623;-63
2022/09/13 08:36:22;;;;;;;2.22;2.13;;;;;;;18.59;69.96;94653.06;5014382;28;20190;-61
2022/09/13 08:38:53;;;;;;;2.55;1.95;;;;;;;18.91;66.99;94719.66;5032286;28;20297;-65
2022/09/13 08:41:36;;;;;;;2.42;1.77;;;;;;;19.10;66.19;94725.09;5032061;28;20185;-64
2022/09/13 08:44:11;;;;;;;5.38;2.08;;;;;;;19.19;66.84;94695.63;5032084;28;20217;-64
2022/09/13 08:46:45;;;;;;;3.35;2.20;;;;;;;18.87;63.04;94773.34;4998802;28;20196;-64
2022/09/13 08:49:25;;;;;;;1.88;1.75;;;;;;;18.59;60.09;94829.00;5014167;28;20216;-63
2022/09/13 08:51:55;;;;;;;1.75;1.65;;;;;;;18.71;62.45;94755.47;5014123;28;20204;-63
2022/09/13 08:54:21;;;;;;;2.92;1.55;;;;;;;18.91;59.92;94807.28;5014032;28;20253;-65
2022/09/13 08:57:03;;;;;;;4.60;1.67;;;;;;;19.00;60.22;94794.16;5031809;28;20633;-65
2022/09/13 08:59:50;;;;;;;2.03;1.80;;;;;;;18.61;61.52;94748.97;5039466;22;20260;-62
2022/09/13 09:02:25;;;;;;;3.88;1.60;;;;;;;18.51;61.07;94761.31;5031948;28;20186;-62
2022/09/13 09:05:08;;;;;;;3.65;1.73;;;;;;;18.58;59.46;94800.84;5031694;28;20573;-64
2022/09/13 09:07:39;;;;;;;2.17;1.65;;;;;;;18.57;59.77;94773.47;5031688;28;20667;-64
2022/09/13 09:10:14;;;;;;;1.77;1.30;;;;;;;19.12;58.52;94815.13;5032093;28;20684;-63
2022/09/13 09:12:56;;;;;;;2.72;1.60;;;;;;;19.52;55.79;94881.72;5031395;28;20240;-65
2022/09/13 09:15:32;;;;;;;1.67;1.58;;;;;;;19.81;55.78;94861.06;5031363;28;20222;-62
2022/09/13 09:18:03;;;;;;;1.50;1.40;;;;;;;19.77;53.75;94905.47;5031196;28;20737;-62
2022/09/13 09:20:31;;;;;;;4.05;1.50;;;;;;;19.22;55.83;94828.53;5031133;28;20245;-63
2022/09/13 09:23:06;;;;;;;3.63;1.60;;;;;;;19.57;55.09;94858.00;5013502;28;20194;-64
2022/09/13 09:25:33;;;;;;;1.90;1.75;;;;;;;19.34;54.82;94852.94;5031187;28;20221;-62
2022/09/13 09:27:58;;;;;;;2.35;1.40;;;;;;;19.51;54.39;94846.63;5031228;28;20186;-63
2022/09/13 09:30:37;;;;;;;1.50;1.40;;;;;;;20.07;52.14;94917.34;5031316;28;20202;-64
2022/09/13 09:33:09;;;;;;;3.35;1.30;;;;;;;20.27;51.38;94922.75;5031407;28;20246;-65
2022/09/13 09:36:08;;;;;;;3.08;1.90;;;;;;;19.88;52.19;94887.75;5013481;28;20248;-63
2022/09/13 09:38:42;;;;;;;3.30;2.58;;;;;;;20.42;51.36;94902.88;5031915;28;20210;-62
2022/09/13 09:41:18;;;;;;;2.05;1.42;;;;;;;20.48;51.01;94902.13;5031196;28;20210;-62
2022/09/13 09:43:51;;;;;;;2.15;1.55;;;;;;;20.45;50.59;94903.28;5030655;28;20205;-62
2022/09/13 09:46:23;;;;;;;2.28;2.05;;;;;;;20.08;52.76;94821.66;5031117;28;20190;-62
2022/09/13 09:48:53;;;;;;;2.63;2.28;;;;;;;19.93;53.12;94817.53;5013145;28;20240;-63
2022/09/13 09:51:22;;;;;;;3.15;1.75;;;;;;;19.79;53.05;94802.88;5031234;28;20217;-61
2022/09/13 09:53:54;;;;;;;2.50;1.70;;;;;;;19.67;53.66;94789.66;5031181;28;20225;-63
2022/09/13 09:56:29;;;;;;;3.35;2.10;;;;;;;19.51;54.32;94768.44;5013348;28;20667;-64
2022/09/13 09:58:54;;;;;;;3.28;1.55;;;;;;;19.14;54.21;94751.28;5013288;28;20213;-62
2022/09/13 10:01:28;;;;;;;3.08;1.58;;;;;;;19.63;52.80;94808.25;5030943;28;20186;-64
2022/09/13 10:04:09;;;;;;;4.68;1.52;;;;;;;20.10;50.95;94853.25;5031139;28;20218;-64
2022/09/13 10:06:38;;;;;;;2.53;1.27;;;;;;;20.41;50.96;94847.81;5013084;28;20362;-63
2022/09/13 10:09:17;;;;;;;4.25;2.40;;;;;;;20.93;50.20;94868.13;5030818;28;20267;-64
2022/09/13 10:11:48;;;;;;;1.98;1.70;;;;;;;20.64;48.14;94887.19;5030757;28;20192;-63
2022/09/13 10:17:05;;;;;;;2.33;1.90;;;;;;;20.95;50.33;94780.84;5037619;22;20272;-62
2022/09/13 10:19:32;;;;;;;2.38;1.95;;;;;;;20.72;51.98;94728.63;5030730;28;20357;-62
2022/09/13 10:22:17;;;;;;;1.77;1.67;;;;;;;20.19;50.24;94779.09;5030572;28;20178;-63
2022/09/13 10:24:43;;;;;;;2.80;2.10;;;;;;;19.97;52.01;94713.75;5030259;28;20234;-64
2022/09/13 10:27:35;;;;;;;2.65;1.50;;;;;;;20.98;53.90;94664.16;5012923;28;20243;-62
2022/09/13 10:30:04;;;;;;;2.05;1.60;;;;;;;21.47;49.42;94806.25;5030448;28;20222;-62
2022/09/13 10:32:30;;;;;;;3.67;1.92;;;;;;;21.96;51.32;94747.28;5030532;28;20198;-62
2022/09/13 10:35:08;;;;;;;2.58;1.63;;;;;;;21.38;46.55;94870.25;5030405;28;20586;-63
2022/09/13 10:37:35;;;;;;;1.77;1.67;;;;;;;21.06;48.42;94801.03;5030528;28;20197;-62
2022/09/13 10:40:07;;;;;;;1.70;1.48;;;;;;;20.95;49.55;94759.38;5012800;28;20218;-63
2022/09/13 10:42:33;;;;;;;2.92;1.70;;;;;;;21.13;48.72;94776.00;5030787;28;20186;-62
2022/09/13 10:45:05;;;;;;;3.78;1.63;;;;;;;21.63;47.07;94831.78;5012630;28;20244;-63
2022/09/13 10:47:38;;;;;;;1.98;1.60;;;;;;;22.27;48.10;94801.09;5030734;28;20181;-62
2022/09/13 10:50:26;;;;;;;1.77;1.40;;;;;;;22.36;43.44;94825.84;5030819;28;20233;-63
2022/09/13 10:52:57;;;;;;;1.58;1.48;;;;;;;22.09;44.59;94768.03;5030444;28;20228;-60
2022/09/13 10:55:28;;;;;;;2.22;1.63;;;;;;;22.35;44.71;94755.09;5033038;28;20558;-61
2022/09/13 10:57:58;;;;;;;1.63;1.52;;;;;;;22.78;42.79;94814.31;5033946;28;20694;-61
2022/09/13 11:00:33;;;;;;;2.50;1.70;;;;;;;21.54;44.63;94730.22;5033456;28;20229;-63
2022/09/13 11:02:59;;;;;;;2.00;1.80;;;;;;;21.88;45.25;94713.00;5016056;28;20194;-61
2022/09/13 11:05:53;;;;;;;1.80;1.63;;;;;;;21.58;45.44;94715.91;5016006;28;20252;-62
2022/09/13 11:08:54;;;;;;;2.40;1.88;;;;;;;20.90;47.22;94669.50;5004806;28;20198;-64
2022/09/13 11:11:33;;;;;;;1.92;1.50;;;;;;;21.44;45.54;94697.94;4953679;29;20674;-64
2022/09/13 11:14:10;;;;;;;1.95;1.85;;;;;;;22.29;46.22;94685.13;5024219;28;20291;-65
2022/09/13 11:17:02;;;;;;;2.08;1.85;;;;;;;22.67;44.86;94721.59;5033752;28;20196;-63
2022/09/13 11:19:40;;;;;;;2.55;1.88;;;;;;;22.42;43.97;94749.91;5033498;28;20297;-63
2022/09/13 11:22:14;;;;;;;2.13;1.88;;;;;;;22.05;44.36;94722.00;5033756;28;20581;-64
2022/09/13 11:25:06;;;;;;;3.03;1.67;;;;;;;21.77;44.99;94707.38;5033399;28;20205;-62
2022/09/13 11:30:25;;;;;;;1.65;1.55;;;;;;;22.63;42.78;94752.31;5041281;22;20397;-64
2022/09/13 11:33:12;;;;;;;1.80;1.70;;;;;;;23.27;42.34;94760.19;5033114;28;20218;-62
2022/09/13 11:36:01;;;;;;;1.60;1.50;;;;;;;23.56;41.00;94816.00;5033213;28;20366;-63
2022/09/13 11:38:57;;;;;;;1.83;1.30;;;;;;;23.33;40.17;94808.69;5015373;28;20201;-62
2022/09/13 11:41:51;;;;;;;1.67;1.58;;;;;;;23.05;40.16;94788.16;5015276;28;20190;-61
2022/09/13 11:44:28;;;;;;;2.40;1.98;;;;;;;23.33;41.06;94761.97;5025019;28;20223;-63
2022/09/13 11:47:25;;;;;;;3.75;1.42;;;;;;;23.01;40.07;94776.59;5032761;28;20568;-64
2022/09/13 11:50:08;;;;;;;1.55;1.45;;;;;;;22.69;39.59;94787.78;5032841;28;20213;-62
2022/09/13 11:53:06;;;;;;;1.88;1.50;;;;;;;22.71;40.24;94766.84;5032113;28;20186;-66
2022/09/13 11:55:38;;;;;;;1.50;1.40;;;;;;;22.83;40.08;94762.66;5032911;28;20680;-61
2022/09/13 11:58:12;;;;;;;1.60;1.50;;;;;;;22.72;40.47;94739.94;5015017;28;20190;-60